Time;durP1;ratioP1;P1;durP2;ratioP2;P2;SDS_P1;SDS_P2;PMS_P1;PMS_P2;Temp;Humidity;BMP_temperature;BMP_pressure;BME280_temperature;BME280_humidity;BME280_pressure;Samples;Min_cycle;Max_cycle;Signal;HPM_P1;HPM_P2
2021/12/10 00:01:07;;;;;;;38.72;22.23;;;;;;;3.77;100.00;99682.53;5071254;28;20414;-30
2021/12/10 00:03:39;;;;;;;48.05;23.27;;;;;;;3.77;100.00;99677.84;5071154;28;20040;-35
2021/12/10 00:06:13;;;;;;;37.47;20.90;;;;;;;3.79;100.00;99674.81;5071467;28;20036;-39
2021/12/10 00:08:43;;;;;;;46.60;22.90;;;;;;;3.76;100.00;99670.66;5070274;28;20053;-35
2021/12/10 00:11:18;;;;;;;45.90;23.88;;;;;;;3.77;100.00;99669.56;5071853;28;20055;-33
2021/12/10 00:13:48;;;;;;;44.03;24.23;;;;;;;3.78;100.00;99662.13;5070897;28;20036;-32
2021/12/10 00:16:18;;;;;;;39.95;21.70;;;;;;;3.77;100.00;99660.47;5070831;28;20053;-37
2021/12/10 00:18:52;;;;;;;46.53;23.20;;;;;;;3.78;100.00;99665.69;5069455;28;20059;-37
2021/12/10 00:21:23;;;;;;;38.95;22.67;;;;;;;3.79;100.00;99661.84;5070641;28;20051;-33
2021/12/10 00:23:51;;;;;;;40.20;21.02;;;;;;;3.81;100.00;99645.78;5070727;28;20115;-33
2021/12/10 00:26:21;;;;;;;36.88;20.15;;;;;;;3.86;100.00;99638.59;5060255;28;20524;-33
2021/12/10 00:28:50;;;;;;;35.22;20.38;;;;;;;3.90;100.00;99642.44;5070355;28;20055;-34
2021/12/10 00:31:31;;;;;;;35.55;20.40;;;;;;;3.90;100.00;99629.47;5071182;28;20513;-33
2021/12/10 00:34:03;;;;;;;32.83;18.07;;;;;;;3.91;100.00;99628.38;5070901;28;20083;-31
2021/12/10 00:36:36;;;;;;;36.50;20.00;;;;;;;3.91;100.00;99619.25;5070665;28;20576;-34
2021/12/10 00:39:06;;;;;;;31.38;17.92;;;;;;;3.95;100.00;99617.59;5070685;28;20049;-33
2021/12/10 00:41:34;;;;;;;36.72;18.73;;;;;;;3.90;100.00;99612.91;5071080;28;20049;-38
2021/12/10 00:44:01;;;;;;;34.30;20.08;;;;;;;3.87;100.00;99602.44;5070089;28;20091;-36
2021/12/10 00:46:29;;;;;;;37.58;19.58;;;;;;;3.82;100.00;99608.00;5070953;28;20044;-33
2021/12/10 00:48:57;;;;;;;37.20;18.88;;;;;;;3.85;100.00;99596.38;5071029;28;20049;-30
2021/12/10 00:51:25;;;;;;;34.63;18.65;;;;;;;3.83;100.00;99597.78;5069936;28;20056;-32
2021/12/10 00:53:54;;;;;;;29.70;18.23;;;;;;;3.83;100.00;99600.53;5070713;28;20100;-34
2021/12/10 00:56:22;;;;;;;32.50;18.10;;;;;;;3.84;100.00;99588.41;5070062;28;20051;-34
2021/12/10 00:58:50;;;;;;;32.63;18.67;;;;;;;3.78;100.00;99587.63;5070492;28;20045;-33
2021/12/10 01:01:21;;;;;;;29.52;17.83;;;;;;;3.76;100.00;99578.81;5070786;28;20045;-34
2021/12/10 01:03:54;;;;;;;31.30;17.63;;;;;;;3.73;100.00;99571.09;5070224;28;20037;-36
2021/12/10 01:06:25;;;;;;;25.63;16.13;;;;;;;3.70;100.00;99566.97;5070690;28;20136;-35
2021/12/10 01:08:58;;;;;;;26.83;15.25;;;;;;;3.72;100.00;99555.66;5070691;28;20400;-32
2021/12/10 01:11:30;;;;;;;26.13;15.48;;;;;;;3.66;100.00;99559.53;5069716;28;20051;-32
2021/12/10 01:14:12;;;;;;;28.73;14.90;;;;;;;3.63;100.00;99549.91;5070755;28;20056;-31
2021/12/10 01:25:12;;;;;;;26.50;13.38;;;;;;;3.52;100.00;99542.00;5070172;28;20052;-36
2021/12/10 01:27:44;;;;;;;25.27;13.95;;;;;;;3.46;100.00;99528.22;5070611;28;20045;-33
2021/12/10 01:30:18;;;;;;;25.88;12.98;;;;;;;3.46;100.00;99528.22;5070870;28;20504;-27
2021/12/10 01:32:50;;;;;;;25.00;11.90;;;;;;;3.46;100.00;99519.13;5071551;28;20051;-32
2021/12/10 01:35:23;;;;;;;25.17;13.43;;;;;;;3.42;100.00;99531.84;5073891;28;20528;-39
2021/12/10 01:37:52;;;;;;;23.38;12.85;;;;;;;3.38;100.00;99525.25;5074072;28;20533;-38
2021/12/10 01:40:23;;;;;;;24.00;13.55;;;;;;;3.35;100.00;99517.56;5073462;28;20052;-38
2021/12/10 01:42:54;;;;;;;26.77;13.95;;;;;;;3.32;100.00;99518.94;5074006;28;20055;-32
2021/12/10 01:45:26;;;;;;;22.30;12.07;;;;;;;3.34;100.00;99519.47;5074162;28;20064;-28
2021/12/10 01:47:58;;;;;;;23.87;12.13;;;;;;;3.33;100.00;99508.75;5069375;28;20052;-31
2021/12/10 01:50:27;;;;;;;;;;;;;;;3.33;100.00;99505.97;5058047;28;20056;-35
2021/12/10 01:52:58;;;;;;;22.52;10.65;;;;;;;3.34;100.00;99502.94;5073463;28;19947;-31
2021/12/10 01:55:29;;;;;;;24.17;11.38;;;;;;;3.33;100.00;99503.22;5073866;28;20055;-36
2021/12/10 01:57:59;;;;;;;20.98;11.10;;;;;;;3.32;100.00;99493.31;5073997;28;20454;-32
2021/12/10 02:00:31;;;;;;;18.88;11.35;;;;;;;3.34;100.00;99488.34;5073084;28;20490;-35
2021/12/10 02:02:59;;;;;;;19.35;10.60;;;;;;;3.32;100.00;99499.66;5073629;28;20210;-33
2021/12/10 02:05:27;;;;;;;17.65;9.85;;;;;;;3.33;100.00;99484.75;5073590;28;20063;-34
2021/12/10 02:07:55;;;;;;;15.52;10.43;;;;;;;3.31;100.00;99478.69;5072672;28;20517;-36
2021/12/10 02:10:24;;;;;;;19.33;10.10;;;;;;;3.31;100.00;99477.88;5073749;28;20044;-32
2021/12/10 02:12:54;;;;;;;22.70;10.73;;;;;;;3.31;100.00;99477.88;5073297;28;20041;-32
2021/12/10 02:15:25;;;;;;;18.77;10.38;;;;;;;3.30;100.00;99478.97;5073005;28;20045;-35
2021/12/10 02:17:56;;;;;;;22.58;11.10;;;;;;;3.28;100.00;99472.94;5073123;28;20083;-34
2021/12/10 02:20:27;;;;;;;18.77;10.65;;;;;;;3.28;100.00;99459.13;5073472;28;20078;-30
2021/12/10 02:22:56;;;;;;;22.85;10.95;;;;;;;3.21;100.00;99462.22;5072383;28;20041;-33
2021/12/10 02:25:28;;;;;;;16.40;10.00;;;;;;;3.21;100.00;99450.34;5073407;28;20074;-35
2021/12/10 02:27:57;;;;;;;22.73;11.15;;;;;;;3.16;100.00;99445.72;5072633;28;20053;-35
2021/12/10 02:30:27;;;;;;;19.50;10.05;;;;;;;3.19;100.00;99447.09;5073118;28;20051;-34
2021/12/10 02:32:55;;;;;;;20.45;10.73;;;;;;;3.15;100.00;99446.00;5073578;28;20382;-34
2021/12/10 02:35:24;;;;;;;20.75;10.85;;;;;;;3.10;100.00;99450.44;5072356;28;20052;-34
2021/12/10 02:37:52;;;;;;;19.58;9.77;;;;;;;3.07;100.00;99442.72;5072995;28;20047;-29
2021/12/10 02:40:25;;;;;;;15.60;10.18;;;;;;;3.06;100.00;99430.06;5069433;28;20049;-28
2021/12/10 02:42:55;;;;;;;20.52;10.68;;;;;;;3.02;100.00;99434.47;5072259;28;20041;-36
2021/12/10 02:45:24;;;;;;;19.67;10.32;;;;;;;3.03;100.00;99427.88;5071291;28;20056;-30
2021/12/10 02:47:54;;;;;;;24.67;11.77;;;;;;;3.04;100.00;99431.44;5072884;28;20400;-33
2021/12/10 02:50:24;;;;;;;21.50;11.02;;;;;;;3.04;100.00;99425.94;5072195;28;20044;-35
2021/12/10 02:52:52;;;;;;;18.23;11.25;;;;;;;3.01;100.00;99424.56;5072727;28;20052;-35
2021/12/10 02:55:22;;;;;;;19.70;11.82;;;;;;;2.99;100.00;99420.47;5072257;28;20047;-37
2021/12/10 02:57:54;;;;;;;24.05;12.32;;;;;;;3.02;100.00;99417.94;5072413;28;20127;-37
2021/12/10 03:00:26;;;;;;;17.60;11.65;;;;;;;2.96;100.00;99412.78;5069012;28;20119;-32
2021/12/10 03:02:54;;;;;;;22.08;11.48;;;;;;;2.93;100.00;99422.44;5056471;28;20087;-32
2021/12/10 03:05:22;;;;;;;19.48;12.13;;;;;;;2.94;100.00;99424.09;5072680;28;20103;-33
2021/12/10 03:07:51;;;;;;;20.38;12.30;;;;;;;2.94;100.00;99429.59;5072544;28;20045;-31
2021/12/10 03:10:23;;;;;;;20.42;12.63;;;;;;;2.90;100.00;99436.78;5071773;28;20044;-31
2021/12/10 03:12:51;;;;;;;;;;;;;;;2.87;100.00;99431.00;5073002;28;20048;-36
2021/12/10 03:15:21;;;;;;;19.60;11.18;;;;;;;2.89;100.00;99421.34;5072165;28;19925;-30
2021/12/10 03:17:49;;;;;;;21.77;12.23;;;;;;;2.88;100.00;99416.94;5071912;28;20054;-36
2021/12/10 03:20:20;;;;;;;25.60;12.52;;;;;;;2.92;100.00;99417.19;5071729;28;20048;-32
2021/12/10 03:22:48;;;;;;;24.40;12.93;;;;;;;2.92;100.00;99415.28;5072428;28;20056;-35
2021/12/10 03:25:18;;;;;;;22.85;12.48;;;;;;;2.93;100.00;99405.91;5071403;28;20045;-33
2021/12/10 03:27:48;;;;;;;24.15;13.60;;;;;;;2.91;100.00;99388.00;5072157;28;20391;-36
2021/12/10 03:30:19;;;;;;;22.48;12.70;;;;;;;2.89;100.00;99391.03;5071831;28;20169;-35
2021/12/10 03:32:48;;;;;;;22.02;13.95;;;;;;;2.88;100.00;99388.56;5071455;28;20413;-33
2021/12/10 03:35:20;;;;;;;22.27;13.15;;;;;;;2.85;100.00;99383.63;5071411;28;20047;-35
2021/12/10 03:37:47;;;;;;;24.37;13.23;;;;;;;2.80;100.00;99383.69;5072220;28;20054;-28
2021/12/10 03:40:18;;;;;;;20.25;14.15;;;;;;;2.78;100.00;99377.63;5071024;28;20055;-33
2021/12/10 03:42:49;;;;;;;24.65;13.18;;;;;;;2.77;100.00;99371.28;5071127;28;20051;-36
2021/12/10 03:45:18;;;;;;;22.25;13.15;;;;;;;2.77;100.00;99374.06;5070814;28;20067;-32
2021/12/10 03:47:47;;;;;;;22.52;12.90;;;;;;;2.72;100.00;99374.91;5071971;28;20048;-34
2021/12/10 03:50:25;;;;;;;24.38;14.00;;;;;;;2.72;100.00;99361.13;5071334;28;20567;-35
2021/12/10 03:52:53;;;;;;;22.33;12.68;;;;;;;2.72;100.00;99363.88;5068815;28;20075;-31
2021/12/10 03:55:22;;;;;;;20.10;13.05;;;;;;;2.69;100.00;99358.09;5070650;28;20047;-29
2021/12/10 03:57:53;;;;;;;18.67;12.40;;;;;;;2.69;100.00;99352.59;5071228;28;20040;-34
2021/12/10 04:00:24;;;;;;;21.15;11.73;;;;;;;2.67;100.00;99354.81;5071102;28;20394;-29
2021/12/10 04:02:53;;;;;;;18.45;11.18;;;;;;;2.66;100.00;99347.66;5071523;28;20044;-33
2021/12/10 04:05:21;;;;;;;18.88;10.93;;;;;;;2.63;100.00;99349.03;5071280;28;20075;-34
2021/12/10 04:07:49;;;;;;;18.48;10.55;;;;;;;2.65;100.00;99346.00;5070736;28;20145;-35
2021/12/10 04:10:18;;;;;;;16.67;10.02;;;;;;;2.65;100.00;99332.25;5069834;28;20087;-38
2021/12/10 04:12:46;;;;;;;17.00;10.27;;;;;;;2.62;100.00;99330.88;5068092;28;20052;-35
2021/12/10 04:15:19;;;;;;;18.45;9.95;;;;;;;2.64;100.00;99319.59;5054551;28;20080;-32
2021/12/10 04:17:49;;;;;;;19.17;10.30;;;;;;;2.64;100.00;99316.81;5071046;28;20497;-30
2021/12/10 04:20:18;;;;;;;18.08;9.43;;;;;;;2.64;100.00;99309.38;5070569;28;20127;-31
2021/12/10 04:22:47;;;;;;;18.17;9.55;;;;;;;2.70;100.00;99307.44;5070730;28;20052;-30
2021/12/10 04:25:17;;;;;;;21.05;9.70;;;;;;;2.66;100.00;99301.66;5071246;28;20527;-34
2021/12/10 04:27:48;;;;;;;18.67;9.20;;;;;;;2.67;100.00;99288.72;5070204;28;20044;-33
2021/12/10 04:30:18;;;;;;;19.85;10.30;;;;;;;2.67;100.00;99299.75;5071322;28;20047;-30
2021/12/10 04:32:46;;;;;;;15.90;9.07;;;;;;;2.67;100.00;99274.94;5070573;28;20048;-31
2021/12/10 04:35:18;;;;;;;17.67;9.05;;;;;;;2.67;100.00;99284.03;5070580;28;20045;-33
2021/12/10 04:37:47;;;;;;;16.33;8.52;;;;;;;2.69;100.00;99275.50;5070706;28;20058;-31
2021/12/10 04:40:18;;;;;;;13.30;8.48;;;;;;;2.71;100.00;99274.09;5071417;28;20071;-35
2021/12/10 04:42:46;;;;;;;14.35;7.32;;;;;;;2.73;100.00;99273.81;5069983;28;20051;-38
2021/12/10 04:45:16;;;;;;;15.27;7.63;;;;;;;2.75;100.00;99282.63;5070025;28;20520;-36
2021/12/10 04:47:46;;;;;;;13.95;7.55;;;;;;;2.76;100.00;99270.50;5070130;28;20044;-37
2021/12/10 04:50:16;;;;;;;17.02;7.68;;;;;;;2.74;100.00;99267.19;5070652;28;20052;-30
2021/12/10 04:52:44;;;;;;;16.17;7.03;;;;;;;2.74;100.00;99267.19;5068883;28;20056;-28
2021/12/10 04:55:14;;;;;;;15.32;7.00;;;;;;;2.78;100.00;99268.28;5070981;28;20055;-37
2021/12/10 04:57:43;;;;;;;15.95;6.72;;;;;;;2.79;100.00;99264.41;5070108;28;20056;-33
2021/12/10 05:00:14;;;;;;;14.27;6.30;;;;;;;2.84;100.00;99264.34;5070522;28;20056;-34
2021/12/10 05:02:44;;;;;;;10.95;5.60;;;;;;;2.85;100.00;99263.25;5068996;28;20049;-36
2021/12/10 05:05:14;;;;;;;12.32;5.75;;;;;;;2.88;100.00;99259.91;5067510;28;20044;-38
2021/12/10 05:07:42;;;;;;;13.52;5.75;;;;;;;2.91;100.00;99261.28;5070808;28;20059;-38
2021/12/10 05:10:15;;;;;;;12.68;5.78;;;;;;;2.94;100.00;99255.19;5072911;28;20078;-37
2021/12/10 05:12:43;;;;;;;11.60;5.60;;;;;;;2.95;100.00;99254.91;5072883;28;20072;-38
2021/12/10 05:15:14;;;;;;;13.73;5.35;;;;;;;3.00;100.00;99254.84;5072837;28;20060;-31
2021/12/10 05:17:42;;;;;;;13.20;5.30;;;;;;;2.97;100.00;99249.94;5073523;28;20038;-37
2021/12/10 05:20:16;;;;;;;13.02;4.93;;;;;;;3.02;100.00;99249.88;5074437;28;20386;-37
2021/12/10 05:22:47;;;;;;;10.68;5.00;;;;;;;3.07;100.00;99241.56;5074284;28;20425;-31
2021/12/10 05:25:16;;;;;;;9.50;4.65;;;;;;;3.13;100.00;99233.25;5073735;28;20040;-31
2021/12/10 05:27:44;;;;;;;12.60;4.47;;;;;;;3.12;100.00;99240.72;5074367;28;20406;-34
2021/12/10 05:30:17;;;;;;;11.45;4.30;;;;;;;3.14;100.00;99248.69;5074165;28;20135;-34
2021/12/10 05:32:45;;;;;;;11.90;4.65;;;;;;;3.18;100.00;99252.50;5072173;28;20096;-37
2021/12/10 05:35:14;;;;;;;11.43;4.55;;;;;;;3.20;100.00;99250.28;5073891;28;20059;-34
2021/12/10 05:37:42;;;;;;;12.48;4.70;;;;;;;3.20;100.00;99253.84;5073462;28;20067;-35
2021/12/10 05:40:13;;;;;;;12.02;5.07;;;;;;;3.22;100.00;99239.78;5074106;28;20036;-33
2021/12/10 05:42:42;;;;;;;8.00;4.15;;;;;;;3.24;100.00;99235.63;5074113;28;20048;-30
2021/12/10 05:45:12;;;;;;;8.32;4.30;;;;;;;3.26;100.00;99238.91;5073196;28;20060;-34
2021/12/10 05:47:39;;;;;;;10.43;4.50;;;;;;;3.23;100.00;99242.25;5073963;28;20049;-32
2021/12/10 05:50:10;;;;;;;10.55;4.30;;;;;;;3.28;100.00;99241.38;5073347;28;20490;-34
2021/12/10 05:52:39;;;;;;;7.80;3.65;;;;;;;3.27;100.00;99248.00;5073753;28;20506;-35
2021/12/10 05:55:08;;;;;;;13.05;4.07;;;;;;;3.25;100.00;99240.00;5073458;28;20045;-32
2021/12/10 05:57:35;;;;;;;8.27;4.15;;;;;;;3.25;100.00;99239.19;5074033;28;20045;-32
2021/12/10 06:00:13;;;;;;;9.48;3.92;;;;;;;3.29;100.00;99237.50;5073231;28;20354;-34
2021/12/10 06:02:41;;;;;;;9.18;3.60;;;;;;;3.27;100.00;99242.47;5064189;28;20052;-33
2021/12/10 06:05:10;;;;;;;9.98;3.63;;;;;;;3.28;100.00;99233.94;5073646;28;20060;-31
2021/12/10 06:07:39;;;;;;;8.88;4.03;;;;;;;3.34;100.00;99240.22;5073074;28;20040;-35
2021/12/10 06:10:09;;;;;;;9.77;3.55;;;;;;;3.32;100.00;99239.69;5073371;28;20498;-37
2021/12/10 06:12:37;;;;;;;6.82;3.83;;;;;;;3.28;100.00;99247.72;5073882;28;20049;-32
2021/12/10 06:15:06;;;;;;;9.57;3.80;;;;;;;3.32;100.00;99239.69;5072561;28;20119;-31
2021/12/10 06:17:34;;;;;;;8.07;3.72;;;;;;;3.32;100.00;99245.19;5070042;28;20046;-35
2021/12/10 06:20:02;;;;;;;6.93;3.38;;;;;;;3.35;100.00;99234.41;5072547;28;20059;-29
2021/12/10 06:22:30;;;;;;;9.88;3.38;;;;;;;3.38;100.00;99233.00;5072866;28;20048;-33
2021/12/10 06:24:59;;;;;;;6.50;3.05;;;;;;;3.38;100.00;99233.00;5072338;28;20049;-32
2021/12/10 06:27:27;;;;;;;7.93;3.53;;;;;;;3.36;100.00;99233.31;5071505;28;20374;-33
2021/12/10 06:29:55;;;;;;;10.80;3.50;;;;;;;3.37;100.00;99243.22;5072784;28;20059;-35
2021/12/10 06:32:23;;;;;;;7.38;3.13;;;;;;;3.33;100.00;99236.63;5069371;28;20444;-33
2021/12/10 06:34:51;;;;;;;7.82;2.90;;;;;;;3.36;100.00;99235.22;5072529;28;20054;-32
2021/12/10 06:37:19;;;;;;;9.52;3.20;;;;;;;3.38;100.00;99227.50;5072853;28;20101;-33
2021/12/10 06:39:46;;;;;;;8.88;3.15;;;;;;;3.41;100.00;99237.91;5073264;28;20048;-33
2021/12/10 06:42:16;;;;;;;7.95;3.45;;;;;;;3.37;100.00;99239.63;5072198;28;20403;-32
2021/12/10 06:45:04;;;;;;;7.10;3.50;;;;;;;3.33;100.00;99247.66;5072804;28;20517;-33
2021/12/10 06:47:32;;;;;;;6.95;3.00;;;;;;;3.37;100.00;99250.66;5072941;28;20516;-35
2021/12/10 06:50:00;;;;;;;11.48;3.60;;;;;;;3.36;100.00;99252.59;5072220;28;20527;-31
2021/12/10 06:52:28;;;;;;;8.45;3.28;;;;;;;3.33;100.00;99255.13;5071075;28;20493;-38
2021/12/10 06:54:55;;;;;;;9.63;3.28;;;;;;;3.37;100.00;99258.94;5072750;28;20437;-37
2021/12/10 06:57:24;;;;;;;8.30;3.28;;;;;;;3.37;100.00;99258.94;5072348;28;20036;-36
2021/12/10 06:59:52;;;;;;;9.38;3.13;;;;;;;3.40;100.00;99252.81;5072851;28;20409;-33
2021/12/10 07:02:20;;;;;;;9.55;3.17;;;;;;;3.42;100.00;99258.84;5071715;28;20592;-37
2021/12/10 07:04:48;;;;;;;12.15;3.40;;;;;;;3.43;100.00;99258.56;5072259;28;20048;-37
2021/12/10 07:07:16;;;;;;;7.60;2.65;;;;;;;3.44;100.00;99264.91;5070776;28;20498;-31
2021/12/10 07:09:44;;;;;;;8.93;2.75;;;;;;;3.42;100.00;99265.19;5071057;28;20492;-36
2021/12/10 07:12:13;;;;;;;7.05;2.80;;;;;;;3.43;100.00;99266.84;5071061;28;20053;-33
2021/12/10 07:14:43;;;;;;;6.60;2.70;;;;;;;3.45;100.00;99263.81;5071418;28;20146;-33
2021/12/10 07:17:11;;;;;;;9.18;2.83;;;;;;;3.43;100.00;99258.56;5070378;28;20040;-34
2021/12/10 07:19:40;;;;;;;9.23;2.83;;;;;;;3.46;100.00;99252.47;5068080;28;20470;-37
2021/12/10 07:22:08;;;;;;;8.13;2.90;;;;;;;3.46;100.00;99252.47;5070752;28;20052;-31
2021/12/10 07:24:36;;;;;;;6.90;2.90;;;;;;;3.44;100.00;99265.72;5070282;28;20051;-35
2021/12/10 07:27:08;;;;;;;6.72;2.70;;;;;;;3.48;100.00;99268.72;5068803;28;20044;-37
2021/12/10 07:29:36;;;;;;;7.45;2.60;;;;;;;3.49;100.00;99264.88;5070291;28;20056;-33
2021/12/10 07:32:06;;;;;;;9.23;2.75;;;;;;;3.51;100.00;99264.56;5069315;28;20057;-33
2021/12/10 07:34:34;;;;;;;8.43;2.97;;;;;;;3.48;100.00;99265.97;5069907;28;20044;-33
2021/12/10 07:37:02;;;;;;;6.63;3.05;;;;;;;3.51;100.00;99270.09;5070506;28;20048;-36
2021/12/10 07:39:30;;;;;;;5.80;2.58;;;;;;;3.53;100.00;99271.44;5069812;28;20052;-31
2021/12/10 07:42:00;;;;;;;10.57;2.97;;;;;;;3.51;100.00;99272.84;5069679;28;20052;-33
2021/12/10 07:44:28;;;;;;;9.60;2.97;;;;;;;3.51;100.00;99267.34;5067952;28;20468;-34
2021/12/10 07:46:56;;;;;;;7.18;3.20;;;;;;;3.48;100.00;99271.50;5069830;28;20051;-35
2021/12/10 07:49:29;;;;;;;8.55;2.88;;;;;;;3.49;100.00;99284.16;5069643;28;20367;-29
2021/12/10 07:51:57;;;;;;;7.47;3.42;;;;;;;3.48;100.00;99271.50;5068960;28;20068;-34
2021/12/10 07:54:25;;;;;;;8.88;3.20;;;;;;;3.49;100.00;99284.16;5068971;28;20055;-32
2021/12/10 07:56:54;;;;;;;6.38;2.92;;;;;;;3.52;100.00;99283.59;5069419;28;20044;-37
2021/12/10 07:59:23;;;;;;;7.25;3.42;;;;;;;3.54;100.00;99288.81;5067614;28;20055;-34
2021/12/10 08:01:52;;;;;;;7.38;3.88;;;;;;;3.50;100.00;99290.50;5069401;28;20064;-37
2021/12/10 08:04:20;;;;;;;9.38;3.38;;;;;;;3.49;100.00;99292.44;5069911;28;20059;-32
2021/12/10 08:06:49;;;;;;;7.35;3.70;;;;;;;3.50;100.00;99285.81;5068442;28;20052;-34
2021/12/10 08:09:17;;;;;;;9.40;3.72;;;;;;;3.46;100.00;99284.75;5069747;28;20036;-30
2021/12/10 08:11:45;;;;;;;8.07;4.00;;;;;;;3.47;100.00;99289.16;5070023;28;20379;-29
2021/12/10 08:14:13;;;;;;;8.70;3.90;;;;;;;3.48;100.00;99290.78;5069108;28;20052;-32
2021/12/10 08:16:41;;;;;;;12.95;4.15;;;;;;;3.47;100.00;99292.72;5070164;28;20048;-34
2021/12/10 08:19:12;;;;;;;12.98;5.32;;;;;;;3.45;100.00;99302.41;5070982;28;20090;-32
2021/12/10 08:21:40;;;;;;;10.80;4.57;;;;;;;3.44;100.00;99298.00;5070740;28;20044;-34
2021/12/10 08:24:10;;;;;;;11.32;5.35;;;;;;;3.44;100.00;99295.25;5070634;28;20459;-34
2021/12/10 08:26:38;;;;;;;8.05;4.50;;;;;;;3.45;100.00;99296.88;5070353;28;20147;-39
2021/12/10 08:29:11;;;;;;;11.63;5.47;;;;;;;3.44;100.00;99300.75;5070894;28;20128;-30
2021/12/10 08:31:39;;;;;;;10.38;5.28;;;;;;;3.43;100.00;99307.38;5071268;28;20424;-33
2021/12/10 08:34:07;;;;;;;9.05;5.32;;;;;;;3.41;100.00;99304.09;5069947;28;20036;-38
2021/12/10 08:36:36;;;;;;;11.38;5.45;;;;;;;3.41;100.00;99304.09;5070995;28;20072;-37
2021/12/10 08:39:05;;;;;;;11.05;4.88;;;;;;;3.42;100.00;99297.47;5054551;28;20044;-36
2021/12/10 08:41:35;;;;;;;11.48;5.22;;;;;;;3.41;100.00;99304.09;5070342;28;20048;-36
2021/12/10 08:44:04;;;;;;;12.02;5.35;;;;;;;3.41;100.00;99310.44;5070769;28;20054;-31
2021/12/10 08:46:41;;;;;;;12.50;5.07;;;;;;;3.44;100.00;99306.28;5070799;28;20049;-37
2021/12/10 08:49:10;;;;;;;11.73;5.13;;;;;;;3.46;100.00;99315.06;5070545;28;20049;-35
2021/12/10 08:51:40;;;;;;;12.30;5.50;;;;;;;3.43;100.00;99315.66;5066993;28;20056;-36
2021/12/10 08:54:10;;;;;;;10.82;5.47;;;;;;;3.41;100.00;99313.19;5070923;28;20143;-36
2021/12/10 08:56:40;;;;;;;11.27;5.28;;;;;;;3.43;100.00;99307.38;5069270;28;20044;-30
2021/12/10 08:59:09;;;;;;;11.13;5.32;;;;;;;3.43;100.00;99308.19;5070664;28;20478;-32
2021/12/10 09:01:41;;;;;;;10.77;5.47;;;;;;;3.40;100.00;99313.47;5069607;28;20044;-32
2021/12/10 09:04:11;;;;;;;12.63;5.28;;;;;;;3.42;100.00;99323.09;5070456;28;20151;-32
2021/12/10 09:06:44;;;;;;;16.23;5.88;;;;;;;3.42;100.00;99327.78;5070305;28;20032;-36
2021/12/10 09:09:14;;;;;;;10.35;5.07;;;;;;;3.44;100.00;99334.66;5070357;28;20135;-30
2021/12/10 09:11:48;;;;;;;11.65;4.50;;;;;;;3.44;100.00;99331.09;5070120;28;20059;-30
2021/12/10 09:14:20;;;;;;;10.18;4.90;;;;;;;3.45;100.00;99329.97;5070959;28;20045;-30
2021/12/10 09:16:49;;;;;;;8.00;4.80;;;;;;;3.47;100.00;99338.78;5069459;28;20045;-32
2021/12/10 09:19:17;;;;;;;11.43;4.65;;;;;;;3.47;100.00;99338.78;5070661;28;20049;-29
2021/12/10 09:21:46;;;;;;;10.57;5.07;;;;;;;3.48;100.00;99351.47;5070163;28;20044;-35
2021/12/10 09:24:18;;;;;;;9.90;4.28;;;;;;;3.46;100.00;99351.75;5059422;28;20076;-39
2021/12/10 09:26:52;;;;;;;11.20;5.65;;;;;;;3.45;100.00;99341.00;5070086;28;20397;-34
2021/12/10 09:29:20;;;;;;;11.95;4.70;;;;;;;3.49;100.00;99346.75;5070779;28;20044;-35
2021/12/10 09:31:48;;;;;;;8.40;3.72;;;;;;;3.50;100.00;99340.13;5069589;28;20661;-33
2021/12/10 09:34:18;;;;;;;8.50;4.25;;;;;;;3.51;100.00;99352.81;5070481;28;20071;-37
2021/12/10 09:36:50;;;;;;;9.77;4.05;;;;;;;3.54;100.00;99349.50;5069418;28;20040;-36
2021/12/10 09:39:19;;;;;;;9.30;3.78;;;;;;;3.52;100.00;99346.19;5066583;28;20045;-32
2021/12/10 09:41:49;;;;;;;9.25;4.25;;;;;;;3.50;100.00;99343.72;5070303;28;20464;-34
2021/12/10 09:44:18;;;;;;;9.50;3.85;;;;;;;3.56;100.00;99353.59;5069463;28;20536;-32
2021/12/10 09:46:48;;;;;;;10.57;3.97;;;;;;;3.58;100.00;99351.38;5070225;28;20119;-30
2021/12/10 09:49:16;;;;;;;11.23;4.00;;;;;;;3.57;100.00;99354.44;5069994;28;20044;-35
2021/12/10 09:51:49;;;;;;;11.32;3.78;;;;;;;3.57;100.00;99354.44;5069497;28;20044;-36
2021/12/10 09:54:21;;;;;;;10.40;3.95;;;;;;;3.60;100.00;99362.91;5072121;28;20080;-38
2021/12/10 09:56:54;;;;;;;10.30;4.00;;;;;;;3.57;100.00;99370.97;5074061;28;20429;-31
2021/12/10 09:59:22;;;;;;;8.63;3.75;;;;;;;3.51;100.00;99359.16;5070005;28;20054;-33
2021/12/10 10:01:53;;;;;;;9.25;3.38;;;;;;;3.54;100.00;99375.13;5073826;28;20045;-34
2021/12/10 10:04:23;;;;;;;11.98;3.75;;;;;;;3.57;100.00;99371.78;5073499;28;20056;-29
2021/12/10 10:06:55;;;;;;;8.10;3.47;;;;;;;3.60;100.00;99373.13;5073164;28;20695;-30
2021/12/10 10:09:25;;;;;;;8.35;3.58;;;;;;;3.62;100.00;99368.97;5073932;28;20044;-33
2021/12/10 10:11:59;;;;;;;10.65;3.70;;;;;;;3.59;100.00;99377.03;5073656;28;20106;-35
2021/12/10 10:14:27;;;;;;;7.35;3.08;;;;;;;3.59;100.00;99377.03;5070548;28;20405;-34
2021/12/10 10:16:56;;;;;;;7.72;3.22;;;;;;;3.55;100.00;99370.44;5073355;28;20127;-34
2021/12/10 10:19:25;;;;;;;9.13;3.75;;;;;;;3.53;100.00;99375.41;5071809;28;20159;-34
2021/12/10 10:21:56;;;;;;;8.98;3.05;;;;;;;3.57;100.00;99369.03;5073224;28;20535;-33
2021/12/10 10:24:26;;;;;;;8.10;3.30;;;;;;;3.59;100.00;99374.28;5073045;28;20055;-35
2021/12/10 10:26:59;;;;;;;10.55;3.60;;;;;;;3.58;100.00;99369.88;5072844;28;20152;-35
2021/12/10 10:29:32;;;;;;;11.00;3.85;;;;;;;3.60;100.00;99365.66;5072696;28;20515;-33
2021/12/10 10:32:08;;;;;;;7.57;2.78;;;;;;;3.59;100.00;99372.34;5073632;28;20052;-34
2021/12/10 10:34:38;;;;;;;8.43;3.50;;;;;;;3.64;100.00;99366.75;5072286;28;20057;-34
2021/12/10 10:37:07;;;;;;;9.23;3.38;;;;;;;3.64;100.00;99369.50;5073125;28;20109;-35
2021/12/10 10:39:36;;;;;;;9.10;4.00;;;;;;;3.68;100.00;99380.78;5072755;28;20110;-36
2021/12/10 10:42:11;;;;;;;6.80;3.13;;;;;;;3.68;100.00;99375.28;5072249;28;20506;-34
2021/12/10 10:44:58;;;;;;;13.77;3.47;;;;;;;3.64;100.00;99369.50;5071877;28;20127;-31
2021/12/10 10:47:26;;;;;;;7.90;3.47;;;;;;;3.67;100.00;99379.97;5072501;28;20478;-37
2021/12/10 10:49:57;;;;;;;8.20;3.65;;;;;;;3.68;100.00;99373.34;5072341;28;20044;-34
2021/12/10 10:52:29;;;;;;;9.43;3.10;;;;;;;3.74;100.00;99366.66;5073034;28;20139;-39
2021/12/10 10:55:00;;;;;;;11.18;3.78;;;;;;;3.72;100.00;99370.81;5072007;28;20045;-37
2021/12/10 10:57:32;;;;;;;9.52;3.30;;;;;;;3.74;100.00;99374.13;5072597;28;20497;-35
2021/12/10 11:00:15;;;;;;;8.95;3.53;;;;;;;3.73;100.00;99377.97;5071012;28;20094;-32
2021/12/10 11:02:51;;;;;;;10.48;3.17;;;;;;;3.76;100.00;99377.41;5062881;28;20090;-35
2021/12/10 11:05:22;;;;;;;8.23;3.15;;;;;;;3.79;100.00;99387.88;5071445;28;20044;-40
2021/12/10 11:07:53;;;;;;;9.95;3.10;;;;;;;3.81;100.00;99391.97;5072394;28;20490;-31
2021/12/10 11:10:28;;;;;;;8.27;3.08;;;;;;;3.81;100.00;99399.41;5071819;28;20059;-30
2021/12/10 11:13:11;;;;;;;7.32;3.22;;;;;;;3.84;100.00;99404.34;5062082;28;20425;-31
2021/12/10 11:15:40;;;;;;;9.48;3.25;;;;;;;3.85;100.00;99399.66;5071675;28;20040;-35
2021/12/10 11:18:15;;;;;;;8.13;3.28;;;;;;;3.87;100.00;99394.66;5072357;28;20405;-36
2021/12/10 11:20:45;;;;;;;8.38;2.80;;;;;;;3.87;100.00;99400.19;5072030;28;20052;-35
2021/12/10 11:23:16;;;;;;;7.88;3.45;;;;;;;3.93;100.00;99405.38;5061027;28;20055;-35
2021/12/10 11:25:48;;;;;;;7.32;2.95;;;;;;;3.99;100.00;99403.41;5071759;28;20036;-37
2021/12/10 11:28:21;;;;;;;7.45;3.13;;;;;;;4.00;100.00;99405.00;5072261;28;20047;-35
2021/12/10 11:30:51;;;;;;;10.10;3.90;;;;;;;3.97;100.00;99400.09;5071353;28;20051;-31
2021/12/10 11:33:22;;;;;;;11.00;3.75;;;;;;;3.96;100.00;99401.22;5071995;28;20048;-31
2021/12/10 11:35:53;;;;;;;8.05;2.95;;;;;;;3.94;100.00;99404.28;5071693;28;20063;-31
2021/12/10 11:38:24;;;;;;;8.77;3.35;;;;;;;3.99;100.00;99409.75;5071180;28;20044;-32
2021/12/10 11:40:54;;;;;;;7.93;4.05;;;;;;;3.98;100.00;99407.28;5071774;28;20056;-33
2021/12/10 11:43:56;;;;;;;8.90;3.75;;;;;;;4.02;100.00;99413.84;5071182;28;20048;-31
2021/12/10 11:46:47;;;;;;;9.80;3.72;;;;;;;4.03;100.00;99413.53;5071445;28;20041;-36
2021/12/10 11:49:22;;;;;;;8.07;3.08;;;;;;;4.02;100.00;99406.38;5062585;28;20398;-40